createdAt,value
2019-03-15T00:00:48.135Z,99435.19
2019-03-15T00:03:19.411Z,99436.50
2019-03-15T00:05:51.702Z,99438.70
2019-03-15T00:08:22.922Z,99435.13
2019-03-15T00:10:55.235Z,99426.38
2019-03-15T00:13:26.455Z,99432.45
2019-03-15T00:15:57.717Z,99430.25
2019-03-15T00:18:28.936Z,99439.74
2019-03-15T00:21:00.580Z,99454.17
2019-03-15T00:23:31.805Z,99447.09
2019-03-15T00:26:03.043Z,99451.84
2019-03-15T00:28:34.245Z,99456.17
2019-03-15T00:31:05.553Z,99459.57
2019-03-15T00:33:36.849Z,99453.91
2019-03-15T00:36:08.129Z,99463.49
2019-03-15T00:38:39.406Z,99459.52
2019-03-15T00:41:11.094Z,99466.85
2019-03-15T00:43:42.500Z,99463.78
2019-03-15T00:46:13.687Z,99475.09
2019-03-15T00:48:44.906Z,99475.53
2019-03-15T00:51:16.159Z,99475.37
2019-03-15T00:53:47.369Z,99479.64
2019-03-15T00:56:18.625Z,99490.09
2019-03-15T00:58:49.797Z,99484.41
2019-03-15T01:01:21.015Z,99495.27
2019-03-15T01:03:53.250Z,99478.68
2019-03-15T01:06:24.472Z,99485.16
2019-03-15T01:08:55.683Z,99496.51
2019-03-15T01:11:26.832Z,99486.05
2019-03-15T01:13:58.093Z,99488.73
2019-03-15T01:16:29.297Z,99490.94
2019-03-15T01:19:00.571Z,99497.07
2019-03-15T01:21:31.787Z,99481.80
2019-03-15T01:24:03.118Z,99503.59
2019-03-15T01:26:34.395Z,99482.70
2019-03-15T01:29:05.641Z,99490.53
2019-03-15T01:31:37.901Z,99503.26
2019-03-15T01:34:09.092Z,99507.58
2019-03-15T01:36:40.307Z,99512.87
2019-03-15T01:39:11.669Z,99516.79
2019-03-15T01:41:42.855Z,99518.94
2019-03-15T01:44:14.017Z,99529.02
2019-03-15T01:46:45.367Z,99512.13
2019-03-15T01:49:16.595Z,99536.61
2019-03-15T01:51:47.847Z,99529.63
2019-03-15T01:54:19.087Z,99532.31
2019-03-15T01:56:50.230Z,99539.47
2019-03-15T01:59:21.472Z,99533.84
2019-03-15T02:01:52.712Z,99546.56
2019-03-15T02:04:24.004Z,99524.81
2019-03-15T02:06:55.226Z,99531.84
2019-03-15T02:09:26.621Z,99513.55
2019-03-15T02:11:57.878Z,99530.47
2019-03-15T02:14:29.078Z,99532.19
2019-03-15T02:17:00.660Z,99530.81
2019-03-15T02:19:31.849Z,99532.53
2019-03-15T02:22:03.037Z,99535.95
2019-03-15T02:24:34.323Z,99544.23
2019-03-15T02:27:05.518Z,99548.48
2019-03-15T02:29:36.678Z,99570.64
2019-03-15T02:32:07.891Z,99573.26
2019-03-15T02:34:39.206Z,99568.78
2019-03-15T02:37:10.406Z,99574.91
2019-03-15T02:39:41.618Z,99570.83
2019-03-15T02:42:12.845Z,99583.09
2019-03-15T02:44:44.018Z,99586.60
2019-03-15T02:47:15.260Z,99576.21
2019-03-15T02:49:46.456Z,99584.45
2019-03-15T02:52:17.686Z,99588.31
2019-03-15T02:54:50.005Z,99587.34
2019-03-15T02:57:21.342Z,99596.49
2019-03-15T02:59:52.526Z,99593.41
2019-03-15T03:02:23.747Z,99594.72
2019-03-15T03:04:55.018Z,99601.25
2019-03-15T03:07:26.252Z,99606.38
2019-03-15T03:09:57.458Z,99609.84
2019-03-15T03:12:28.683Z,99602.40
2019-03-15T03:14:59.974Z,99598.98
2019-03-15T03:17:32.224Z,99581.84
2019-03-15T03:20:03.483Z,99598.75
2019-03-15T03:22:36.403Z,99605.79
2019-03-15T03:25:08.323Z,99594.03
2019-03-15T03:27:39.545Z,99603.17
2019-03-15T03:30:10.784Z,99602.73
2019-03-15T03:32:44.216Z,99594.44
2019-03-15T03:35:15.126Z,99606.66
2019-03-15T03:37:46.311Z,99607.09
2019-03-15T03:40:20.074Z,99625.39
2019-03-15T03:42:50.659Z,99634.03
2019-03-15T03:45:23.404Z,99629.20
2019-03-15T03:47:54.818Z,99647.59
2019-03-15T03:50:26.083Z,99636.70
2019-03-15T03:52:57.337Z,99648.06
2019-03-15T03:55:28.541Z,99652.45
2019-03-15T03:57:59.751Z,99644.20
2019-03-15T04:00:31.046Z,99643.30
2019-03-15T04:03:02.272Z,99659.95
2019-03-15T04:05:33.503Z,99651.65
2019-03-15T04:08:04.702Z,99662.56
2019-03-15T04:10:35.983Z,99662.56
2019-03-15T04:13:07.303Z,99667.80
2019-03-15T04:15:38.657Z,99670.97
2019-03-15T04:18:09.934Z,99694.03
2019-03-15T04:20:41.216Z,99681.42
2019-03-15T04:23:12.449Z,99674.55
2019-03-15T04:25:43.706Z,99689.33
2019-03-15T04:28:15.027Z,99693.88
2019-03-15T04:30:46.330Z,99693.15
2019-03-15T04:33:18.632Z,99703.60
2019-03-15T04:35:49.861Z,99710.60
2019-03-15T04:38:21.062Z,99704.91
2019-03-15T04:40:52.274Z,99707.42
2019-03-15T04:43:23.493Z,99717.47
2019-03-15T04:45:54.761Z,99714.39
2019-03-15T04:48:26.003Z,99715.36
2019-03-15T04:50:57.294Z,99723.03
2019-03-15T04:53:28.730Z,99722.57
2019-03-15T04:55:59.956Z,99721.59
2019-03-15T04:58:31.231Z,99719.39
2019-03-15T05:01:02.460Z,99723.38
2019-03-15T05:03:33.715Z,99727.30
2019-03-15T05:06:05.035Z,99727.80
2019-03-15T05:08:36.226Z,99742.17
2019-03-15T05:11:07.592Z,99739.56
2019-03-15T05:13:38.884Z,99743.88
2019-03-15T05:16:10.172Z,99745.59
2019-03-15T05:18:41.508Z,99757.85
2019-03-15T05:21:13.677Z,99766.59
2019-03-15T05:23:44.871Z,99757.02
2019-03-15T05:26:16.097Z,99760.06
2019-03-15T05:28:47.412Z,99766.16
2019-03-15T05:31:18.692Z,99756.05
2019-03-15T05:33:50.108Z,99756.95
2019-03-15T05:36:21.378Z,99764.78
2019-03-15T05:38:52.632Z,99762.67
2019-03-15T05:41:23.937Z,99770.98
2019-03-15T05:43:55.267Z,99770.59
2019-03-15T05:46:26.546Z,99768.30
2019-03-15T05:48:57.780Z,99775.31
2019-03-15T05:51:30.127Z,99772.16
2019-03-15T05:54:01.430Z,99780.47
2019-03-15T05:56:33.716Z,99779.83
2019-03-15T05:59:04.956Z,99780.27
2019-03-15T06:01:36.187Z,99783.68
2019-03-15T06:04:07.418Z,99788.51
2019-03-15T06:06:38.640Z,99787.60
2019-03-15T06:09:09.938Z,99791.52
2019-03-15T06:11:41.361Z,99791.85
2019-03-15T06:14:12.617Z,99800.86
2019-03-15T06:16:43.840Z,99802.58
2019-03-15T06:19:15.079Z,99798.19
2019-03-15T06:21:46.290Z,99799.56
2019-03-15T06:24:17.630Z,99799.56
2019-03-15T06:26:48.922Z,99795.23
2019-03-15T06:29:20.139Z,99802.64
2019-03-15T06:31:52.217Z,99794.47
2019-03-15T06:34:23.526Z,99788.77
2019-03-15T06:36:54.719Z,99798.39
2019-03-15T06:39:25.997Z,99781.41
2019-03-15T06:41:57.182Z,99781.91
2019-03-15T06:44:28.383Z,99771.34
2019-03-15T06:46:59.557Z,99777.98
2019-03-15T06:49:30.867Z,99772.89
2019-03-15T06:52:02.109Z,99782.04
2019-03-15T06:54:33.449Z,99781.70
2019-03-15T06:57:04.769Z,99774.77
2019-03-15T06:59:37.245Z,99785.70
2019-03-15T07:02:08.596Z,99794.44
2019-03-15T07:04:39.908Z,99798.03
2019-03-15T07:07:11.177Z,99796.86
2019-03-15T07:09:42.452Z,99793.98
2019-03-15T07:12:13.825Z,99781.48
2019-03-15T07:14:45.025Z,99781.21
2019-03-15T07:17:16.326Z,99767.37
2019-03-15T07:19:47.629Z,99769.30
2019-03-15T07:22:20.072Z,99766.42
2019-03-15T07:24:52.664Z,99786.67
2019-03-15T07:27:23.956Z,99779.05
2019-03-15T07:29:55.204Z,99772.25
2019-03-15T07:32:26.455Z,99778.17
2019-03-15T07:34:57.719Z,99780.52
2019-03-15T07:37:29.037Z,99784.16
2019-03-15T07:40:00.380Z,99780.13
2019-03-15T07:42:31.666Z,99781.23
2019-03-15T07:45:02.962Z,99771.83
2019-03-15T07:47:34.339Z,99777.19
2019-03-15T07:50:06.652Z,99761.62
2019-03-15T07:52:38.083Z,99771.17
2019-03-15T07:55:09.437Z,99768.94
2019-03-15T07:57:40.644Z,99768.16
2019-03-15T08:00:12.037Z,99767.02
2019-03-15T08:02:43.315Z,99764.86
2019-03-15T08:05:14.713Z,99763.14
2019-03-15T08:07:46.009Z,99756.61
2019-03-15T08:10:17.282Z,99763.95
2019-03-15T08:12:49.744Z,99767.07
2019-03-15T08:15:21.386Z,99769.41
2019-03-15T08:17:52.713Z,99764.86
2019-03-15T08:20:27.754Z,99757.64
2019-03-15T08:23:00.563Z,99765.67
2019-03-15T08:25:32.033Z,99763.18
2019-03-15T08:28:03.390Z,99755.08
2019-03-15T08:30:34.788Z,99752.46
2019-03-15T08:33:10.479Z,99750.31
2019-03-15T08:35:40.321Z,99750.37
2019-03-15T08:38:11.652Z,99749.28
2019-03-15T08:40:42.909Z,99755.95
2019-03-15T08:43:15.128Z,99753.89
2019-03-15T08:45:46.392Z,99759.13
2019-03-15T08:48:17.709Z,99762.70
2019-03-15T08:50:50.021Z,99746.62
2019-03-15T08:53:21.322Z,99757.70
2019-03-15T08:55:52.590Z,99755.94
2019-03-15T08:58:23.994Z,99758.61
2019-03-15T09:00:55.217Z,99744.27
2019-03-15T09:03:28.516Z,99740.95
2019-03-15T09:05:59.969Z,99737.64
2019-03-15T09:08:31.210Z,99756.66
2019-03-15T09:11:02.840Z,99759.45
2019-03-15T09:13:34.623Z,99760.91
2019-03-15T09:16:05.885Z,99766.27
2019-03-15T09:18:37.179Z,99753.23
2019-03-15T09:21:08.777Z,99742.40
2019-03-15T09:23:40.188Z,99759.48
2019-03-15T09:26:11.499Z,99756.63
2019-03-15T09:28:43.066Z,99746.77
2019-03-15T09:31:14.402Z,99749.16
2019-03-15T09:33:45.596Z,99756.81
2019-03-15T09:36:16.895Z,99759.14
2019-03-15T09:38:48.324Z,99753.61
2019-03-15T09:41:30.965Z,99741.46
2019-03-15T09:43:53.418Z,99757.30
2019-03-15T09:46:24.734Z,99743.64
2019-03-15T09:48:56.047Z,99753.31
2019-03-15T09:51:27.310Z,99742.42
2019-03-15T09:53:58.531Z,99718.83
2019-03-15T09:56:29.771Z,99723.28
2019-03-15T09:59:01.022Z,99722.02
2019-03-15T10:01:35.090Z,99722.98
2019-03-15T10:04:05.313Z,99708.36
2019-03-15T10:06:36.551Z,99715.12
2019-03-15T10:09:08.259Z,99721.47
2019-03-15T10:11:39.732Z,99714.47
2019-03-15T10:14:11.244Z,99706.95
2019-03-15T10:16:42.642Z,99709.23
2019-03-15T10:19:13.899Z,99705.79
2019-03-15T10:21:45.293Z,99695.77
2019-03-15T10:24:16.771Z,99697.98
2019-03-15T10:26:48.209Z,99704.99
2019-03-15T10:29:19.850Z,99727.78
2019-03-15T10:31:51.265Z,99729.45
2019-03-15T10:34:22.530Z,99727.06
2019-03-15T10:36:53.848Z,99699.34
2019-03-15T10:39:25.215Z,99694.45
2019-03-15T10:41:56.462Z,99684.27
2019-03-15T10:44:27.779Z,99659.77
2019-03-15T10:46:59.099Z,99665.91
2019-03-15T10:49:31.005Z,99661.62
2019-03-15T10:52:02.361Z,99663.39
2019-03-15T10:54:34.714Z,99666.52
2019-03-15T10:57:05.937Z,99663.48
2019-03-15T10:59:37.238Z,99669.24
2019-03-15T11:02:08.799Z,99669.79
2019-03-15T11:04:39.994Z,99663.69
2019-03-15T11:07:11.383Z,99666.76
2019-03-15T11:09:42.786Z,99669.84
2019-03-15T11:12:14.224Z,99655.42
2019-03-15T11:14:45.756Z,99650.94
2019-03-15T11:17:16.989Z,99640.40
2019-03-15T11:19:48.273Z,99644.69
2019-03-15T11:22:19.636Z,99636.25
2019-03-15T11:24:50.953Z,99641.36
2019-03-15T11:27:22.317Z,99626.43
2019-03-15T11:29:53.575Z,99632.03
2019-03-15T11:32:24.890Z,99625.42
2019-03-15T11:34:56.220Z,99601.69
2019-03-15T11:37:27.535Z,99601.59
2019-03-15T11:39:58.815Z,99600.22
2019-03-15T11:42:30.142Z,99594.89
2019-03-15T11:45:01.361Z,99586.16
2019-03-15T11:47:50.219Z,99587.52
2019-03-15T11:50:06.699Z,99585.01
2019-03-15T11:52:38.024Z,99565.05
2019-03-15T11:55:09.437Z,99551.22
2019-03-15T11:57:41.756Z,99535.55
2019-03-15T12:00:13.114Z,99526.55
2019-03-15T12:02:44.565Z,99525.75
2019-03-15T12:05:16.002Z,99524.58
2019-03-15T12:07:47.268Z,99520.23
2019-03-15T12:10:18.652Z,99508.95
2019-03-15T12:12:49.910Z,99500.31
2019-03-15T12:15:21.217Z,99490.33
2019-03-15T12:17:52.447Z,99485.16
2019-03-15T12:20:23.768Z,99479.48
2019-03-15T12:22:55.009Z,99465.55
2019-03-15T12:25:26.223Z,99455.05
2019-03-15T12:27:57.549Z,99450.76
2019-03-15T12:30:28.833Z,99453.89
2019-03-15T12:33:00.136Z,99449.63
2019-03-15T12:35:31.408Z,99440.95
2019-03-15T12:38:02.645Z,99444.52
2019-03-15T12:40:33.959Z,99433.17
2019-03-15T12:43:05.365Z,99427.56
2019-03-15T12:45:36.682Z,99421.37
2019-03-15T12:48:08.120Z,99415.17
2019-03-15T12:50:39.340Z,99402.92
2019-03-15T12:53:10.674Z,99411.16
2019-03-15T12:55:41.879Z,99399.30
2019-03-15T12:58:13.162Z,99392.75
2019-03-15T13:00:44.448Z,99385.30
2019-03-15T13:03:15.660Z,99377.47
2019-03-15T13:05:46.929Z,99365.62
2019-03-15T13:08:18.277Z,99366.94
2019-03-15T13:10:49.484Z,99375.22
2019-03-15T13:13:20.723Z,99356.41
2019-03-15T13:15:52.016Z,99354.60
2019-03-15T13:18:23.238Z,99366.72
2019-03-15T13:20:54.493Z,99357.09
2019-03-15T13:23:25.806Z,99363.55
2019-03-15T13:25:57.143Z,99370.94
2019-03-15T13:28:28.375Z,99356.88
2019-03-15T13:30:59.653Z,99361.22
2019-03-15T13:33:30.880Z,99347.70
2019-03-15T13:36:02.336Z,99350.69
2019-03-15T13:38:33.616Z,99348.55
2019-03-15T13:41:04.851Z,99352.85
2019-03-15T13:43:36.079Z,99362.44
2019-03-15T13:46:07.408Z,99353.17
2019-03-15T13:48:38.656Z,99357.88
2019-03-15T13:51:10.022Z,99347.80
2019-03-15T13:53:41.398Z,99350.88
2019-03-15T13:56:12.644Z,99341.70
2019-03-15T13:58:52.584Z,99339.16
2019-03-15T14:01:17.166Z,99324.42
2019-03-15T14:03:48.450Z,99330.78
2019-03-15T14:06:19.837Z,99318.75
2019-03-15T14:08:51.133Z,99314.13
2019-03-15T14:11:22.422Z,99302.98
2019-03-15T14:13:54.818Z,99303.68
2019-03-15T14:16:27.953Z,99299.66
2019-03-15T14:18:59.249Z,99282.50
2019-03-15T14:21:30.491Z,99279.83
2019-03-15T14:24:01.798Z,99287.26
2019-03-15T14:26:32.993Z,99276.83
2019-03-15T14:29:04.299Z,99244.03
2019-03-15T14:31:35.638Z,99247.18
2019-03-15T14:34:06.943Z,99233.59
2019-03-15T14:36:38.256Z,99233.13
2019-03-15T14:39:09.853Z,99234.34
2019-03-15T14:41:41.201Z,99234.81
2019-03-15T14:44:13.653Z,99223.77
2019-03-15T14:46:44.892Z,99226.19
2019-03-15T14:49:16.181Z,99229.89
2019-03-15T14:51:47.462Z,99224.81
2019-03-15T14:54:18.755Z,99218.28
2019-03-15T14:56:50.220Z,99209.13
2019-03-15T14:59:21.475Z,99206.22
2019-03-15T15:01:52.755Z,99193.98
2019-03-15T15:04:24.200Z,99248.90
2019-03-15T15:06:55.590Z,99213.41
2019-03-15T15:09:26.863Z,99213.53
2019-03-15T15:11:58.270Z,99193.88
2019-03-15T15:14:29.780Z,99196.70
2019-03-15T15:17:01.276Z,99179.30
2019-03-15T15:19:33.876Z,99197.36
2019-03-15T15:22:05.296Z,99172.78
2019-03-15T15:24:36.619Z,99173.26
2019-03-15T15:27:07.912Z,99173.17
2019-03-15T15:29:39.261Z,99170.55
2019-03-15T15:32:10.643Z,99152.58
2019-03-15T15:34:41.957Z,99147.31
2019-03-15T15:37:13.237Z,99132.37
2019-03-15T15:39:45.529Z,99136.80
2019-03-15T15:42:16.805Z,99151.73
2019-03-15T15:44:48.161Z,99104.81
2019-03-15T15:47:19.481Z,99108.38
2019-03-15T15:49:50.847Z,99118.95
2019-03-15T15:52:22.154Z,99106.30
2019-03-15T15:54:53.442Z,99112.50
2019-03-15T15:57:24.671Z,99127.52
2019-03-15T15:59:56.112Z,99123.20
2019-03-15T16:02:27.549Z,99136.38
2019-03-15T16:04:58.811Z,99159.25
2019-03-15T16:07:30.163Z,99157.48
2019-03-15T16:10:01.667Z,99163.25
2019-03-15T16:12:32.982Z,99156.70
2019-03-15T16:15:04.370Z,99164.61
2019-03-15T16:17:36.014Z,99180.90
2019-03-15T16:20:08.144Z,99201.08
2019-03-15T16:22:39.326Z,99174.73
2019-03-15T16:25:10.726Z,99168.56
2019-03-15T16:27:41.939Z,99166.78
2019-03-15T16:30:14.109Z,99157.56
2019-03-15T16:32:45.564Z,99148.26
2019-03-15T16:35:16.870Z,99138.99
2019-03-15T16:37:48.377Z,99138.99
2019-03-15T16:40:20.374Z,99157.84
2019-03-15T16:42:51.810Z,99162.19
2019-03-15T16:45:23.505Z,99163.88
2019-03-15T16:47:54.794Z,99163.37
2019-03-15T16:50:26.199Z,99166.87
2019-03-15T16:52:57.475Z,99187.89
2019-03-15T16:55:28.897Z,99179.94
2019-03-15T16:58:00.168Z,99188.21
2019-03-15T17:00:31.615Z,99201.77
2019-03-15T17:03:03.007Z,99203.05
2019-03-15T17:05:34.372Z,99190.69
2019-03-15T17:08:05.647Z,99193.67
2019-03-15T17:10:36.876Z,99207.63
2019-03-15T17:13:08.184Z,99226.88
2019-03-15T17:15:39.471Z,99247.80
2019-03-15T17:18:10.736Z,99247.19
2019-03-15T17:20:42.025Z,99264.13
2019-03-15T17:23:13.339Z,99254.77
2019-03-15T17:25:44.619Z,99245.80
2019-03-15T17:28:15.919Z,99246.08
2019-03-15T17:30:47.215Z,99237.58
2019-03-15T17:33:18.528Z,99253.21
2019-03-15T17:35:49.883Z,99260.09
2019-03-15T17:38:21.198Z,99234.05
2019-03-15T17:40:52.476Z,99244.83
2019-03-15T17:43:24.023Z,99246.02
2019-03-15T17:45:55.474Z,99288.02
2019-03-15T17:48:27.068Z,99262.44
2019-03-15T17:50:58.471Z,99262.30
2019-03-15T17:53:29.755Z,99267.91
2019-03-15T17:56:01.082Z,99257.33
2019-03-15T17:58:32.440Z,99262.97
2019-03-15T18:01:04.231Z,99265.56
2019-03-15T18:03:35.520Z,99292.68
2019-03-15T18:06:06.874Z,99288.28
2019-03-15T18:08:38.326Z,99287.39
2019-03-15T18:11:09.871Z,99266.36
2019-03-15T18:13:41.338Z,99292.27
2019-03-15T18:16:12.729Z,99304.55
2019-03-15T18:18:49.090Z,99313.33
2019-03-15T18:21:26.023Z,99307.27
2019-03-15T18:24:01.440Z,99312.53
2019-03-15T18:26:34.407Z,99339.69
2019-03-15T18:29:05.866Z,99312.53
2019-03-15T18:31:38.507Z,99331.80
2019-03-15T18:34:09.865Z,99337.02
2019-03-15T18:36:43.035Z,99354.04
2019-03-15T18:39:14.717Z,99346.50
2019-03-15T18:41:46.537Z,99378.39
2019-03-15T18:44:18.012Z,99372.57
2019-03-15T18:46:49.371Z,99363.30
2019-03-15T18:49:20.750Z,99361.02
2019-03-15T18:51:52.277Z,99387.22
2019-03-15T18:54:23.537Z,99372.31
2019-03-15T18:56:54.904Z,99376.63
2019-03-15T18:59:39.031Z,99387.56
2019-03-15T19:01:59.182Z,99398.52
2019-03-15T19:04:30.524Z,99396.72
2019-03-15T19:07:01.996Z,99403.25
2019-03-15T19:09:33.397Z,99418.98
2019-03-15T19:12:05.055Z,99426.33
2019-03-15T19:14:36.450Z,99407.45
2019-03-15T19:17:07.882Z,99412.63
2019-03-15T19:19:39.289Z,99425.73
2019-03-15T19:22:10.986Z,99430.53
2019-03-15T19:24:42.197Z,99430.91
2019-03-15T19:27:13.624Z,99439.08
2019-03-15T19:29:53.507Z,99437.66
2019-03-15T19:32:19.090Z,99449.35
2019-03-15T19:34:52.992Z,99458.39
2019-03-15T19:37:23.418Z,99474.44
2019-03-15T19:39:54.705Z,99468.20
2019-03-15T19:42:26.045Z,99472.42
2019-03-15T19:44:58.653Z,99485.34
2019-03-15T19:47:30.204Z,99480.83
2019-03-15T19:50:01.556Z,99486.41
2019-03-15T19:52:34.051Z,99490.63
2019-03-15T19:55:07.026Z,99524.66
2019-03-15T19:57:39.096Z,99503.08
2019-03-15T20:00:13.648Z,99512.51
2019-03-15T20:02:45.573Z,99507.13
2019-03-15T20:05:16.991Z,99525.45
2019-03-15T20:07:48.598Z,99506.09
2019-03-15T20:10:20.370Z,99539.20
2019-03-15T20:12:52.624Z,99529.84
2019-03-15T20:15:23.865Z,99541.52
2019-03-15T20:17:55.242Z,99534.34
2019-03-15T20:20:26.653Z,99542.52
2019-03-15T20:22:58.104Z,99545.02
2019-03-15T20:25:29.444Z,99543.20
2019-03-15T20:28:03.911Z,99552.24
2019-03-15T20:30:33.762Z,99558.70
2019-03-15T20:33:05.182Z,99563.86
2019-03-15T20:35:36.537Z,99542.73
2019-03-15T20:38:08.375Z,99564.93
2019-03-15T20:40:39.683Z,99561.36
2019-03-15T20:43:10.967Z,99554.26
2019-03-15T20:45:42.186Z,99562.03
2019-03-15T20:48:13.499Z,99565.06
2019-03-15T20:50:46.945Z,99565.91
2019-03-15T20:53:17.855Z,99558.41
2019-03-15T20:55:49.205Z,99603.74
2019-03-15T20:58:22.312Z,99581.36
2019-03-15T21:00:53.632Z,99591.38
2019-03-15T21:03:24.915Z,99608.78
2019-03-15T21:05:56.267Z,99624.06
2019-03-15T21:08:27.641Z,99638.88
2019-03-15T21:10:58.992Z,99636.17
2019-03-15T21:13:33.626Z,99617.31
2019-03-15T21:16:03.580Z,99644.83
2019-03-15T21:18:34.848Z,99636.47
2019-03-15T21:21:06.194Z,99642.52
2019-03-15T21:23:37.598Z,99645.95
2019-03-15T21:26:08.868Z,99636.26
2019-03-15T21:28:40.158Z,99637.02
2019-03-15T21:31:11.365Z,99644.83
2019-03-15T21:33:42.854Z,99663.13
2019-03-15T21:36:14.254Z,99651.23
2019-03-15T21:38:48.373Z,99667.27
2019-03-15T21:41:20.016Z,99660.20
2019-03-15T21:43:51.319Z,99685.04
2019-03-15T21:46:22.712Z,99670.92
2019-03-15T21:48:54.226Z,99683.88
2019-03-15T21:51:25.623Z,99688.59
2019-03-15T21:53:57.037Z,99681.50
2019-03-15T21:56:28.286Z,99689.70
2019-03-15T21:58:59.871Z,99682.70
2019-03-15T22:01:31.177Z,99691.37
2019-03-15T22:04:02.435Z,99704.30
2019-03-15T22:06:33.686Z,99702.44
2019-03-15T22:09:06.436Z,99718.56
2019-03-15T22:11:37.692Z,99726.25
2019-03-15T22:14:09.018Z,99723.12
2019-03-15T22:16:40.285Z,99711.63
2019-03-15T22:19:11.682Z,99729.91
2019-03-15T22:21:42.952Z,99729.79
2019-03-15T22:24:14.336Z,99724.40
2019-03-15T22:26:45.630Z,99733.85
2019-03-15T22:29:16.874Z,99739.03
2019-03-15T22:31:48.247Z,99754.69
2019-03-15T22:34:19.562Z,99761.58
2019-03-15T22:36:50.965Z,99762.33
2019-03-15T22:39:22.213Z,99769.72
2019-03-15T22:41:53.657Z,99775.30
2019-03-15T22:44:24.986Z,99785.65
2019-03-15T22:46:56.321Z,99780.41
2019-03-15T22:49:27.573Z,99767.16
2019-03-15T22:51:58.807Z,99772.41
2019-03-15T22:54:30.305Z,99780.53
2019-03-15T22:57:01.710Z,99778.77
2019-03-15T22:59:32.972Z,99784.75
2019-03-15T23:02:04.766Z,99785.93
2019-03-15T23:04:36.036Z,99788.42
2019-03-15T23:07:09.482Z,99798.39
2019-03-15T23:09:41.005Z,99811.02
2019-03-15T23:12:12.341Z,99799.58
2019-03-15T23:14:43.683Z,99796.73
2019-03-15T23:17:14.983Z,99813.62
2019-03-15T23:19:46.345Z,99815.27
2019-03-15T23:22:17.933Z,99806.05
2019-03-15T23:24:49.763Z,99811.63
2019-03-15T23:27:21.151Z,99827.73
2019-03-15T23:29:52.442Z,99846.95
2019-03-15T23:32:24.282Z,99860.38
2019-03-15T23:34:55.601Z,99826.36
2019-03-15T23:37:26.794Z,99820.72
2019-03-15T23:39:58.128Z,99838.12
2019-03-15T23:42:29.396Z,99831.13
2019-03-15T23:45:00.641Z,99841.15
2019-03-15T23:47:31.960Z,99839.38
2019-03-15T23:50:03.204Z,99835.85
2019-03-15T23:52:34.435Z,99845.91
2019-03-15T23:55:06.004Z,99864.64
2019-03-15T23:57:37.282Z,99876.41
